sensor_id;sensor_type;location;lat;lon;timestamp;P1;durP1;ratioP1;P2;durP2;ratioP2
9108;SDS011;4590;51.462;6.692;2023-05-19T00:01:08;5.07;;;1.65;;
9108;SDS011;4590;51.462;6.692;2023-05-19T00:03:34;7.18;;;2.30;;
9108;SDS011;4590;51.462;6.692;2023-05-19T00:06:04;3.30;;;1.77;;
9108;SDS011;4590;51.462;6.692;2023-05-19T00:08:32;5.45;;;2.30;;
9108;SDS011;4590;51.462;6.692;2023-05-19T00:10:58;5.70;;;2.03;;
9108;SDS011;4590;51.462;6.692;2023-05-19T00:13:25;5.30;;;2.15;;
9108;SDS011;4590;51.462;6.692;2023-05-19T00:15:52;8.68;;;2.00;;
9108;SDS011;4590;51.462;6.692;2023-05-19T00:18:17;3.70;;;1.70;;
9108;SDS011;4590;51.462;6.692;2023-05-19T00:20:43;3.20;;;1.67;;
9108;SDS011;4590;51.462;6.692;2023-05-19T00:23:09;4.77;;;2.10;;
9108;SDS011;4590;51.462;6.692;2023-05-19T00:25:34;6.03;;;2.00;;
9108;SDS011;4590;51.462;6.692;2023-05-19T00:28:00;4.65;;;2.08;;
9108;SDS011;4590;51.462;6.692;2023-05-19T00:30:26;3.00;;;1.65;;
9108;SDS011;4590;51.462;6.692;2023-05-19T00:32:53;6.53;;;2.03;;
9108;SDS011;4590;51.462;6.692;2023-05-19T00:35:18;5.63;;;2.37;;
9108;SDS011;4590;51.462;6.692;2023-05-19T00:37:44;6.88;;;2.13;;
9108;SDS011;4590;51.462;6.692;2023-05-19T00:40:09;4.33;;;1.87;;
9108;SDS011;4590;51.462;6.692;2023-05-19T00:42:35;4.03;;;1.90;;
9108;SDS011;4590;51.462;6.692;2023-05-19T00:45:00;3.40;;;1.77;;
9108;SDS011;4590;51.462;6.692;2023-05-19T00:47:26;4.17;;;1.80;;
9108;SDS011;4590;51.462;6.692;2023-05-19T00:49:51;5.83;;;2.20;;
9108;SDS011;4590;51.462;6.692;2023-05-19T00:52:16;5.00;;;2.03;;
9108;SDS011;4590;51.462;6.692;2023-05-19T00:54:42;3.83;;;1.87;;
9108;SDS011;4590;51.462;6.692;2023-05-19T00:57:09;4.75;;;2.17;;
9108;SDS011;4590;51.462;6.692;2023-05-19T00:59:35;6.18;;;2.88;;
9108;SDS011;4590;51.462;6.692;2023-05-19T01:02:00;7.07;;;2.30;;
9108;SDS011;4590;51.462;6.692;2023-05-19T01:04:26;6.75;;;3.15;;
9108;SDS011;4590;51.462;6.692;2023-05-19T01:06:54;4.35;;;2.08;;
9108;SDS011;4590;51.462;6.692;2023-05-19T01:09:20;5.38;;;2.05;;
9108;SDS011;4590;51.462;6.692;2023-05-19T01:11:46;4.93;;;2.10;;
9108;SDS011;4590;51.462;6.692;2023-05-19T01:14:12;4.57;;;1.95;;
9108;SDS011;4590;51.462;6.692;2023-05-19T01:19:13;6.10;;;2.33;;
9108;SDS011;4590;51.462;6.692;2023-05-19T01:32:53;4.93;;;2.28;;
9108;SDS011;4590;51.462;6.692;2023-05-19T01:35:26;4.43;;;2.00;;
9108;SDS011;4590;51.462;6.692;2023-05-19T01:37:56;7.82;;;2.67;;
9108;SDS011;4590;51.462;6.692;2023-05-19T01:40:23;7.90;;;2.47;;
9108;SDS011;4590;51.462;6.692;2023-05-19T01:42:50;5.00;;;2.50;;
9108;SDS011;4590;51.462;6.692;2023-05-19T01:45:16;6.80;;;2.67;;
9108;SDS011;4590;51.462;6.692;2023-05-19T01:47:47;4.75;;;2.55;;
9108;SDS011;4590;51.462;6.692;2023-05-19T01:50:18;5.43;;;2.45;;
9108;SDS011;4590;51.462;6.692;2023-05-19T01:52:44;3.63;;;2.28;;
9108;SDS011;4590;51.462;6.692;2023-05-19T01:55:09;4.60;;;2.50;;
9108;SDS011;4590;51.462;6.692;2023-05-19T01:57:40;7.47;;;2.60;;
9108;SDS011;4590;51.462;6.692;2023-05-19T02:05:33;5.35;;;2.50;;
9108;SDS011;4590;51.462;6.692;2023-05-19T02:08:12;8.82;;;2.90;;
9108;SDS011;4590;51.462;6.692;2023-05-19T02:10:47;5.43;;;2.90;;
9108;SDS011;4590;51.462;6.692;2023-05-19T02:13:15;4.85;;;2.72;;
9108;SDS011;4590;51.462;6.692;2023-05-19T02:15:44;6.28;;;2.55;;
9108;SDS011;4590;51.462;6.692;2023-05-19T02:18:10;5.40;;;2.72;;
9108;SDS011;4590;51.462;6.692;2023-05-19T02:20:38;6.32;;;3.03;;
9108;SDS011;4590;51.462;6.692;2023-05-19T02:23:04;6.38;;;2.88;;
9108;SDS011;4590;51.462;6.692;2023-05-19T02:25:30;8.53;;;2.87;;
9108;SDS011;4590;51.462;6.692;2023-05-19T02:27:56;4.23;;;2.40;;
9108;SDS011;4590;51.462;6.692;2023-05-19T02:32:47;4.63;;;2.50;;
9108;SDS011;4590;51.462;6.692;2023-05-19T02:35:12;8.70;;;3.47;;
9108;SDS011;4590;51.462;6.692;2023-05-19T02:37:38;6.47;;;3.00;;
9108;SDS011;4590;51.462;6.692;2023-05-19T02:40:03;4.10;;;2.60;;
9108;SDS011;4590;51.462;6.692;2023-05-19T02:42:29;4.45;;;2.95;;
9108;SDS011;4590;51.462;6.692;2023-05-19T02:44:55;10.90;;;3.10;;
9108;SDS011;4590;51.462;6.692;2023-05-19T02:47:20;8.20;;;3.37;;
9108;SDS011;4590;51.462;6.692;2023-05-19T02:49:45;4.67;;;3.00;;
9108;SDS011;4590;51.462;6.692;2023-05-19T02:52:11;6.30;;;3.40;;
9108;SDS011;4590;51.462;6.692;2023-05-19T02:54:36;4.37;;;3.50;;
9108;SDS011;4590;51.462;6.692;2023-05-19T02:57:01;6.17;;;3.47;;
9108;SDS011;4590;51.462;6.692;2023-05-19T02:59:27;10.80;;;4.03;;
9108;SDS011;4590;51.462;6.692;2023-05-19T03:01:59;5.90;;;3.77;;
9108;SDS011;4590;51.462;6.692;2023-05-19T03:04:26;7.22;;;3.65;;
9108;SDS011;4590;51.462;6.692;2023-05-19T03:06:55;5.93;;;3.13;;
9108;SDS011;4590;51.462;6.692;2023-05-19T03:09:21;7.38;;;3.15;;
9108;SDS011;4590;51.462;6.692;2023-05-19T03:11:47;5.95;;;3.28;;
9108;SDS011;4590;51.462;6.692;2023-05-19T03:14:13;7.15;;;3.75;;
9108;SDS011;4590;51.462;6.692;2023-05-19T03:16:41;5.27;;;3.07;;
9108;SDS011;4590;51.462;6.692;2023-05-19T03:19:07;4.75;;;2.97;;
9108;SDS011;4590;51.462;6.692;2023-05-19T03:21:33;5.50;;;3.10;;
9108;SDS011;4590;51.462;6.692;2023-05-19T03:23:59;7.38;;;3.67;;
9108;SDS011;4590;51.462;6.692;2023-05-19T03:26:25;6.03;;;3.22;;
9108;SDS011;4590;51.462;6.692;2023-05-19T03:28:51;5.45;;;3.08;;
9108;SDS011;4590;51.462;6.692;2023-05-19T03:31:16;6.80;;;3.30;;
9108;SDS011;4590;51.462;6.692;2023-05-19T03:33:42;8.00;;;3.30;;
9108;SDS011;4590;51.462;6.692;2023-05-19T03:36:08;6.78;;;3.60;;
9108;SDS011;4590;51.462;6.692;2023-05-19T03:38:34;7.88;;;3.25;;
9108;SDS011;4590;51.462;6.692;2023-05-19T03:41:00;6.05;;;3.10;;
9108;SDS011;4590;51.462;6.692;2023-05-19T03:43:25;3.88;;;2.88;;
9108;SDS011;4590;51.462;6.692;2023-05-19T03:45:51;6.35;;;4.38;;
9108;SDS011;4590;51.462;6.692;2023-05-19T03:48:17;9.35;;;3.40;;
9108;SDS011;4590;51.462;6.692;2023-05-19T03:50:43;5.77;;;3.00;;
9108;SDS011;4590;51.462;6.692;2023-05-19T03:53:08;5.50;;;2.73;;
9108;SDS011;4590;51.462;6.692;2023-05-19T03:55:34;5.50;;;3.10;;
9108;SDS011;4590;51.462;6.692;2023-05-19T04:00:26;7.93;;;3.10;;
9108;SDS011;4590;51.462;6.692;2023-05-19T04:02:52;6.57;;;3.07;;
9108;SDS011;4590;51.462;6.692;2023-05-19T04:05:18;6.13;;;3.80;;
9108;SDS011;4590;51.462;6.692;2023-05-19T04:07:43;4.70;;;3.07;;
9108;SDS011;4590;51.462;6.692;2023-05-19T04:10:10;5.30;;;3.10;;
9108;SDS011;4590;51.462;6.692;2023-05-19T04:12:36;7.45;;;3.75;;
9108;SDS011;4590;51.462;6.692;2023-05-19T04:15:02;7.35;;;3.40;;
9108;SDS011;4590;51.462;6.692;2023-05-19T04:17:29;6.15;;;3.45;;
9108;SDS011;4590;51.462;6.692;2023-05-19T04:19:55;8.05;;;3.50;;
9108;SDS011;4590;51.462;6.692;2023-05-19T04:22:21;6.95;;;3.67;;
9108;SDS011;4590;51.462;6.692;2023-05-19T04:24:47;8.15;;;3.08;;
9108;SDS011;4590;51.462;6.692;2023-05-19T04:27:14;4.07;;;3.22;;
9108;SDS011;4590;51.462;6.692;2023-05-19T04:29:41;6.07;;;3.58;;
9108;SDS011;4590;51.462;6.692;2023-05-19T04:32:08;5.72;;;4.00;;
9108;SDS011;4590;51.462;6.692;2023-05-19T04:34:34;8.05;;;4.07;;
9108;SDS011;4590;51.462;6.692;2023-05-19T04:37:04;6.50;;;4.28;;
9108;SDS011;4590;51.462;6.692;2023-05-19T04:39:35;6.15;;;3.83;;
9108;SDS011;4590;51.462;6.692;2023-05-19T04:42:06;5.45;;;3.42;;
9108;SDS011;4590;51.462;6.692;2023-05-19T04:44:32;6.53;;;3.63;;
9108;SDS011;4590;51.462;6.692;2023-05-19T04:46:58;7.23;;;3.63;;
9108;SDS011;4590;51.462;6.692;2023-05-19T04:49:31;5.60;;;3.47;;
9108;SDS011;4590;51.462;6.692;2023-05-19T04:51:57;3.65;;;2.95;;
9108;SDS011;4590;51.462;6.692;2023-05-19T04:54:22;5.50;;;3.70;;
9108;SDS011;4590;51.462;6.692;2023-05-19T04:56:47;6.70;;;3.40;;
9108;SDS011;4590;51.462;6.692;2023-05-19T05:02:42;7.03;;;3.80;;
9108;SDS011;4590;51.462;6.692;2023-05-19T05:05:10;8.45;;;3.72;;
9108;SDS011;4590;51.462;6.692;2023-05-19T05:07:35;7.25;;;3.70;;
9108;SDS011;4590;51.462;6.692;2023-05-19T05:10:00;8.27;;;4.40;;
9108;SDS011;4590;51.462;6.692;2023-05-19T05:12:26;8.30;;;4.03;;
9108;SDS011;4590;51.462;6.692;2023-05-19T05:14:52;6.43;;;3.90;;
9108;SDS011;4590;51.462;6.692;2023-05-19T05:17:19;10.63;;;3.88;;
9108;SDS011;4590;51.462;6.692;2023-05-19T05:19:58;6.13;;;3.93;;
9108;SDS011;4590;51.462;6.692;2023-05-19T05:25:10;9.57;;;4.25;;
9108;SDS011;4590;51.462;6.692;2023-05-19T05:28:50;6.88;;;3.75;;
9108;SDS011;4590;51.462;6.692;2023-05-19T05:31:19;6.70;;;3.92;;
9108;SDS011;4590;51.462;6.692;2023-05-19T05:33:46;9.68;;;4.30;;
9108;SDS011;4590;51.462;6.692;2023-05-19T05:36:54;9.55;;;4.15;;
9108;SDS011;4590;51.462;6.692;2023-05-19T05:40:03;8.93;;;4.35;;
9108;SDS011;4590;51.462;6.692;2023-05-19T05:42:35;7.82;;;4.15;;
9108;SDS011;4590;51.462;6.692;2023-05-19T05:45:03;9.20;;;4.32;;
9108;SDS011;4590;51.462;6.692;2023-05-19T05:48:29;7.68;;;3.90;;
9108;SDS011;4590;51.462;6.692;2023-05-19T05:50:55;7.80;;;3.95;;
9108;SDS011;4590;51.462;6.692;2023-05-19T05:53:21;7.38;;;3.47;;
9108;SDS011;4590;51.462;6.692;2023-05-19T05:55:53;6.15;;;3.83;;
9108;SDS011;4590;51.462;6.692;2023-05-19T06:01:31;6.53;;;2.97;;
9108;SDS011;4590;51.462;6.692;2023-05-19T06:04:03;7.35;;;3.45;;
9108;SDS011;4590;51.462;6.692;2023-05-19T06:06:29;7.20;;;3.40;;
9108;SDS011;4590;51.462;6.692;2023-05-19T06:08:55;6.15;;;3.05;;
9108;SDS011;4590;51.462;6.692;2023-05-19T06:11:21;6.35;;;3.03;;
9108;SDS011;4590;51.462;6.692;2023-05-19T06:13:47;5.60;;;3.35;;
9108;SDS011;4590;51.462;6.692;2023-05-19T06:16:12;5.22;;;3.03;;
9108;SDS011;4590;51.462;6.692;2023-05-19T06:28:53;9.55;;;3.15;;
9108;SDS011;4590;51.462;6.692;2023-05-19T06:31:19;6.75;;;3.08;;
9108;SDS011;4590;51.462;6.692;2023-05-19T06:33:45;7.00;;;3.10;;
9108;SDS011;4590;51.462;6.692;2023-05-19T06:36:11;6.43;;;3.42;;
9108;SDS011;4590;51.462;6.692;2023-05-19T06:38:37;7.18;;;3.47;;
9108;SDS011;4590;51.462;6.692;2023-05-19T06:41:03;8.40;;;3.07;;
9108;SDS011;4590;51.462;6.692;2023-05-19T06:43:28;6.20;;;2.80;;
9108;SDS011;4590;51.462;6.692;2023-05-19T06:45:54;8.55;;;3.22;;
9108;SDS011;4590;51.462;6.692;2023-05-19T06:48:20;6.90;;;2.97;;
9108;SDS011;4590;51.462;6.692;2023-05-19T06:50:46;9.23;;;2.88;;
9108;SDS011;4590;51.462;6.692;2023-05-19T06:53:12;6.38;;;2.85;;
9108;SDS011;4590;51.462;6.692;2023-05-19T06:55:38;6.97;;;2.80;;
9108;SDS011;4590;51.462;6.692;2023-05-19T06:58:05;4.95;;;2.50;;
9108;SDS011;4590;51.462;6.692;2023-05-19T07:00:31;7.20;;;2.22;;
9108;SDS011;4590;51.462;6.692;2023-05-19T07:02:57;5.13;;;2.50;;
9108;SDS011;4590;51.462;6.692;2023-05-19T07:05:22;5.93;;;2.60;;
9108;SDS011;4590;51.462;6.692;2023-05-19T07:07:48;6.43;;;2.40;;
9108;SDS011;4590;51.462;6.692;2023-05-19T07:12:41;4.85;;;2.08;;
9108;SDS011;4590;51.462;6.692;2023-05-19T07:15:07;5.93;;;2.35;;
9108;SDS011;4590;51.462;6.692;2023-05-19T07:17:33;8.38;;;2.58;;
9108;SDS011;4590;51.462;6.692;2023-05-19T07:19:59;6.22;;;1.90;;
9108;SDS011;4590;51.462;6.692;2023-05-19T07:22:25;5.15;;;1.80;;
9108;SDS011;4590;51.462;6.692;2023-05-19T07:24:51;4.88;;;2.05;;
9108;SDS011;4590;51.462;6.692;2023-05-19T07:27:16;3.30;;;1.73;;
9108;SDS011;4590;51.462;6.692;2023-05-19T07:29:42;3.85;;;1.83;;
9108;SDS011;4590;51.462;6.692;2023-05-19T07:32:08;6.72;;;2.28;;
9108;SDS011;4590;51.462;6.692;2023-05-19T07:34:33;5.97;;;2.47;;
9108;SDS011;4590;51.462;6.692;2023-05-19T08:05:33;5.43;;;1.75;;
9108;SDS011;4590;51.462;6.692;2023-05-19T08:11:02;3.75;;;1.48;;
9108;SDS011;4590;51.462;6.692;2023-05-19T08:13:28;4.28;;;1.77;;
9108;SDS011;4590;51.462;6.692;2023-05-19T08:18:23;4.13;;;1.50;;
9108;SDS011;4590;51.462;6.692;2023-05-19T08:20:50;4.95;;;1.48;;
9108;SDS011;4590;51.462;6.692;2023-05-19T08:25:42;4.20;;;1.58;;
9108;SDS011;4590;51.462;6.692;2023-05-19T08:28:09;4.57;;;1.40;;
9108;SDS011;4590;51.462;6.692;2023-05-19T08:30:36;3.28;;;1.30;;
9108;SDS011;4590;51.462;6.692;2023-05-19T08:35:29;3.67;;;1.60;;
9108;SDS011;4590;51.462;6.692;2023-05-19T08:37:55;4.25;;;1.38;;
9108;SDS011;4590;51.462;6.692;2023-05-19T08:40:41;4.72;;;1.90;;
9108;SDS011;4590;51.462;6.692;2023-05-19T08:43:10;6.30;;;2.17;;
9108;SDS011;4590;51.462;6.692;2023-05-19T08:45:43;3.67;;;1.30;;
9108;SDS011;4590;51.462;6.692;2023-05-19T08:48:12;4.63;;;1.45;;
9108;SDS011;4590;51.462;6.692;2023-05-19T08:54:59;5.22;;;1.45;;
9108;SDS011;4590;51.462;6.692;2023-05-19T09:01:41;4.72;;;1.27;;
9108;SDS011;4590;51.462;6.692;2023-05-19T09:04:27;6.18;;;2.03;;
9108;SDS011;4590;51.462;6.692;2023-05-19T09:06:56;3.22;;;1.30;;
9108;SDS011;4590;51.462;6.692;2023-05-19T09:09:32;4.85;;;1.45;;
9108;SDS011;4590;51.462;6.692;2023-05-19T09:12:00;7.72;;;1.80;;
9108;SDS011;4590;51.462;6.692;2023-05-19T09:14:26;6.45;;;1.38;;
9108;SDS011;4590;51.462;6.692;2023-05-19T09:16:54;4.85;;;1.08;;
9108;SDS011;4590;51.462;6.692;2023-05-19T09:19:21;2.75;;;1.10;;
9108;SDS011;4590;51.462;6.692;2023-05-19T09:21:59;5.25;;;1.40;;
9108;SDS011;4590;51.462;6.692;2023-05-19T09:24:25;4.57;;;1.33;;
9108;SDS011;4590;51.462;6.692;2023-05-19T09:29:18;5.13;;;1.50;;
9108;SDS011;4590;51.462;6.692;2023-05-19T09:34:16;4.28;;;1.20;;
9108;SDS011;4590;51.462;6.692;2023-05-19T09:39:19;4.07;;;1.40;;
9108;SDS011;4590;51.462;6.692;2023-05-19T09:45:45;6.13;;;1.10;;
9108;SDS011;4590;51.462;6.692;2023-05-19T09:55:36;2.55;;;1.20;;
9108;SDS011;4590;51.462;6.692;2023-05-19T09:58:59;3.17;;;1.27;;
9108;SDS011;4590;51.462;6.692;2023-05-19T10:02:10;6.00;;;1.98;;
9108;SDS011;4590;51.462;6.692;2023-05-19T10:05:30;3.70;;;1.50;;
9108;SDS011;4590;51.462;6.692;2023-05-19T10:08:56;3.65;;;1.40;;
9108;SDS011;4590;51.462;6.692;2023-05-19T10:15:21;3.90;;;1.48;;
9108;SDS011;4590;51.462;6.692;2023-05-19T10:21:55;4.65;;;1.25;;
9108;SDS011;4590;51.462;6.692;2023-05-19T10:24:44;5.30;;;1.52;;
9108;SDS011;4590;51.462;6.692;2023-05-19T10:27:14;5.80;;;1.45;;
9108;SDS011;4590;51.462;6.692;2023-05-19T10:39:58;3.25;;;1.20;;
9108;SDS011;4590;51.462;6.692;2023-05-19T10:50:06;4.35;;;1.40;;
9108;SDS011;4590;51.462;6.692;2023-05-19T10:56:47;5.57;;;1.65;;
9108;SDS011;4590;51.462;6.692;2023-05-19T11:03:35;5.63;;;1.85;;
9108;SDS011;4590;51.462;6.692;2023-05-19T11:06:49;4.68;;;1.40;;
9108;SDS011;4590;51.462;6.692;2023-05-19T11:10:08;3.13;;;1.30;;
9108;SDS011;4590;51.462;6.692;2023-05-19T11:12:41;6.85;;;1.92;;
9108;SDS011;4590;51.462;6.692;2023-05-19T11:19:54;4.40;;;1.52;;
9108;SDS011;4590;51.462;6.692;2023-05-19T11:36:12;3.45;;;1.25;;
9108;SDS011;4590;51.462;6.692;2023-05-19T11:38:42;5.82;;;1.73;;
9108;SDS011;4590;51.462;6.692;2023-05-19T11:41:37;5.78;;;2.00;;
9108;SDS011;4590;51.462;6.692;2023-05-19T11:51:50;3.47;;;1.35;;
9108;SDS011;4590;51.462;6.692;2023-05-19T11:55:22;4.28;;;1.50;;
9108;SDS011;4590;51.462;6.692;2023-05-19T12:01:48;3.88;;;1.60;;
9108;SDS011;4590;51.462;6.692;2023-05-19T12:51:38;4.40;;;1.38;;
9108;SDS011;4590;51.462;6.692;2023-05-19T12:54:48;5.72;;;1.85;;
9108;SDS011;4590;51.462;6.692;2023-05-19T13:01:06;4.28;;;1.23;;
9108;SDS011;4590;51.462;6.692;2023-05-19T13:07:56;4.45;;;2.00;;
9108;SDS011;4590;51.462;6.692;2023-05-19T13:24:24;4.30;;;1.42;;
9108;SDS011;4590;51.462;6.692;2023-05-19T13:34:11;2.35;;;1.17;;
9108;SDS011;4590;51.462;6.692;2023-05-19T13:37:40;3.45;;;1.30;;
9108;SDS011;4590;51.462;6.692;2023-05-19T13:41:00;5.82;;;1.50;;
9108;SDS011;4590;51.462;6.692;2023-05-19T13:54:33;6.50;;;1.40;;
9108;SDS011;4590;51.462;6.692;2023-05-19T14:12:35;3.58;;;1.30;;
9108;SDS011;4590;51.462;6.692;2023-05-19T14:15:00;3.25;;;1.10;;
9108;SDS011;4590;51.462;6.692;2023-05-19T14:26:17;4.35;;;1.75;;
9108;SDS011;4590;51.462;6.692;2023-05-19T14:28:43;3.22;;;1.40;;
9108;SDS011;4590;51.462;6.692;2023-05-19T14:33:36;4.40;;;1.42;;
9108;SDS011;4590;51.462;6.692;2023-05-19T14:38:44;5.07;;;1.50;;
9108;SDS011;4590;51.462;6.692;2023-05-19T14:45:18;3.75;;;1.50;;
9108;SDS011;4590;51.462;6.692;2023-05-19T14:48:17;3.05;;;1.35;;
9108;SDS011;4590;51.462;6.692;2023-05-19T14:51:12;2.30;;;1.20;;
9108;SDS011;4590;51.462;6.692;2023-05-19T14:58:21;3.33;;;1.42;;
9108;SDS011;4590;51.462;6.692;2023-05-19T15:01:06;3.42;;;1.55;;
9108;SDS011;4590;51.462;6.692;2023-05-19T15:04:17;3.33;;;1.50;;
9108;SDS011;4590;51.462;6.692;2023-05-19T15:24:39;3.55;;;1.20;;
9108;SDS011;4590;51.462;6.692;2023-05-19T15:30:27;2.50;;;1.30;;
9108;SDS011;4590;51.462;6.692;2023-05-19T15:33:40;4.97;;;1.35;;
9108;SDS011;4590;51.462;6.692;2023-05-19T15:37:05;2.95;;;1.15;;
9108;SDS011;4590;51.462;6.692;2023-05-19T15:40:09;3.70;;;1.55;;
9108;SDS011;4590;51.462;6.692;2023-05-19T15:43:33;3.17;;;1.17;;
9108;SDS011;4590;51.462;6.692;2023-05-19T15:46:48;3.22;;;1.23;;
9108;SDS011;4590;51.462;6.692;2023-05-19T15:50:26;3.05;;;1.00;;
9108;SDS011;4590;51.462;6.692;2023-05-19T15:57:13;3.55;;;1.30;;
9108;SDS011;4590;51.462;6.692;2023-05-19T16:00:40;2.72;;;1.10;;
9108;SDS011;4590;51.462;6.692;2023-05-19T16:06:55;4.22;;;1.67;;
9108;SDS011;4590;51.462;6.692;2023-05-19T16:10:25;3.55;;;1.23;;
9108;SDS011;4590;51.462;6.692;2023-05-19T16:14:02;8.00;;;1.27;;
9108;SDS011;4590;51.462;6.692;2023-05-19T16:24:35;2.78;;;1.50;;
9108;SDS011;4590;51.462;6.692;2023-05-19T16:30:28;4.50;;;1.25;;
9108;SDS011;4590;51.462;6.692;2023-05-19T16:33:50;4.00;;;1.13;;
9108;SDS011;4590;51.462;6.692;2023-05-19T16:50:42;3.88;;;1.60;;
9108;SDS011;4590;51.462;6.692;2023-05-19T17:43:39;3.72;;;1.80;;
9108;SDS011;4590;51.462;6.692;2023-05-19T17:46:05;3.28;;;1.40;;
9108;SDS011;4590;51.462;6.692;2023-05-19T17:48:41;3.53;;;1.50;;
9108;SDS011;4590;51.462;6.692;2023-05-19T17:51:45;4.82;;;1.63;;
9108;SDS011;4590;51.462;6.692;2023-05-19T18:05:00;3.50;;;1.70;;
9108;SDS011;4590;51.462;6.692;2023-05-19T18:08:12;2.92;;;1.20;;
9108;SDS011;4590;51.462;6.692;2023-05-19T18:11:20;2.92;;;1.30;;
9108;SDS011;4590;51.462;6.692;2023-05-19T18:48:32;4.38;;;1.33;;
9108;SDS011;4590;51.462;6.692;2023-05-19T18:50:58;3.28;;;1.50;;
9108;SDS011;4590;51.462;6.692;2023-05-19T18:53:24;2.85;;;1.35;;
9108;SDS011;4590;51.462;6.692;2023-05-19T18:59:21;2.75;;;1.30;;
9108;SDS011;4590;51.462;6.692;2023-05-19T19:25:13;2.78;;;1.40;;
9108;SDS011;4590;51.462;6.692;2023-05-19T19:30:40;2.78;;;1.20;;
